sensor_id;sensor_type;location;lat;lon;timestamp;temperature;humidity
16700;DHT22;8466;52.286;21.124;2022-10-04T00:00:09;10.00;99.90
16700;DHT22;8466;52.286;21.124;2022-10-04T00:02:38;10.00;99.90
16700;DHT22;8466;52.286;21.124;2022-10-04T00:05:15;10.10;99.90
16700;DHT22;8466;52.286;21.124;2022-10-04T00:07:48;10.10;99.90
16700;DHT22;8466;52.286;21.124;2022-10-04T00:10:21;10.10;99.90
16700;DHT22;8466;52.286;21.124;2022-10-04T00:12:51;10.10;99.90
16700;DHT22;8466;52.286;21.124;2022-10-04T00:15:26;10.10;99.90
16700;DHT22;8466;52.286;21.124;2022-10-04T00:18:01;10.10;99.90
16700;DHT22;8466;52.286;21.124;2022-10-04T00:21:00;10.10;99.90
16700;DHT22;8466;52.286;21.124;2022-10-04T00:23:42;10.00;99.90
16700;DHT22;8466;52.286;21.124;2022-10-04T00:29:32;10.00;99.90
16700;DHT22;8466;52.286;21.124;2022-10-04T00:32:26;10.00;99.90
16700;DHT22;8466;52.286;21.124;2022-10-04T00:34:55;10.00;99.90
16700;DHT22;8466;52.286;21.124;2022-10-04T00:37:25;10.00;99.90
16700;DHT22;8466;52.286;21.124;2022-10-04T00:40:02;9.90;99.90
16700;DHT22;8466;52.286;21.124;2022-10-04T00:42:44;9.90;99.90
16700;DHT22;8466;52.286;21.124;2022-10-04T00:45:31;9.90;99.90
16700;DHT22;8466;52.286;21.124;2022-10-04T00:51:10;9.70;99.90
16700;DHT22;8466;52.286;21.124;2022-10-04T00:54:01;9.60;99.90
16700;DHT22;8466;52.286;21.124;2022-10-04T00:56:38;9.60;99.90
16700;DHT22;8466;52.286;21.124;2022-10-04T00:59:23;9.60;99.90
16700;DHT22;8466;52.286;21.124;2022-10-04T01:01:59;9.50;99.90
16700;DHT22;8466;52.286;21.124;2022-10-04T01:04:39;9.50;99.90
16700;DHT22;8466;52.286;21.124;2022-10-04T01:07:11;9.40;99.90
16700;DHT22;8466;52.286;21.124;2022-10-04T01:09:47;9.40;99.90
16700;DHT22;8466;52.286;21.124;2022-10-04T01:12:39;9.40;99.90
16700;DHT22;8466;52.286;21.124;2022-10-04T01:15:12;9.50;99.90
16700;DHT22;8466;52.286;21.124;2022-10-04T01:20:53;9.60;99.90
16700;DHT22;8466;52.286;21.124;2022-10-04T01:23:36;9.60;99.90
16700;DHT22;8466;52.286;21.124;2022-10-04T01:26:40;9.50;99.90
16700;DHT22;8466;52.286;21.124;2022-10-04T01:29:12;9.60;99.90
16700;DHT22;8466;52.286;21.124;2022-10-04T01:31:44;9.50;99.90
16700;DHT22;8466;52.286;21.124;2022-10-04T01:34:15;9.50;99.90
16700;DHT22;8466;52.286;21.124;2022-10-04T01:36:45;9.50;99.90
16700;DHT22;8466;52.286;21.124;2022-10-04T01:39:17;9.60;99.90
16700;DHT22;8466;52.286;21.124;2022-10-04T01:41:49;9.60;99.90
16700;DHT22;8466;52.286;21.124;2022-10-04T01:44:27;9.70;99.90
16700;DHT22;8466;52.286;21.124;2022-10-04T01:47:00;9.70;99.90
16700;DHT22;8466;52.286;21.124;2022-10-04T01:49:31;9.70;99.90
16700;DHT22;8466;52.286;21.124;2022-10-04T01:52:05;9.70;99.90
16700;DHT22;8466;52.286;21.124;2022-10-04T01:54:39;9.60;99.90
16700;DHT22;8466;52.286;21.124;2022-10-04T01:57:13;9.60;99.90
16700;DHT22;8466;52.286;21.124;2022-10-04T01:59:47;9.60;99.90
16700;DHT22;8466;52.286;21.124;2022-10-04T02:02:22;9.40;99.90
16700;DHT22;8466;52.286;21.124;2022-10-04T02:04:55;9.30;99.90
16700;DHT22;8466;52.286;21.124;2022-10-04T02:07:28;9.30;99.90
16700;DHT22;8466;52.286;21.124;2022-10-04T02:10:02;9.30;99.90
16700;DHT22;8466;52.286;21.124;2022-10-04T02:12:33;9.20;99.90
16700;DHT22;8466;52.286;21.124;2022-10-04T02:15:07;9.20;99.90
16700;DHT22;8466;52.286;21.124;2022-10-04T02:17:39;9.20;99.90
16700;DHT22;8466;52.286;21.124;2022-10-04T02:20:14;9.30;99.90
16700;DHT22;8466;52.286;21.124;2022-10-04T02:22:44;9.40;99.90
16700;DHT22;8466;52.286;21.124;2022-10-04T02:25:17;9.50;99.90
16700;DHT22;8466;52.286;21.124;2022-10-04T02:27:47;9.60;99.90
16700;DHT22;8466;52.286;21.124;2022-10-04T02:30:19;9.60;99.90
16700;DHT22;8466;52.286;21.124;2022-10-04T02:32:52;9.50;99.90
16700;DHT22;8466;52.286;21.124;2022-10-04T02:35:28;9.50;99.90
16700;DHT22;8466;52.286;21.124;2022-10-04T02:38:08;9.50;99.90
16700;DHT22;8466;52.286;21.124;2022-10-04T02:40:43;9.50;99.90
16700;DHT22;8466;52.286;21.124;2022-10-04T02:43:16;9.50;99.90
16700;DHT22;8466;52.286;21.124;2022-10-04T02:45:49;9.50;99.90
16700;DHT22;8466;52.286;21.124;2022-10-04T02:48:35;9.60;99.90
16700;DHT22;8466;52.286;21.124;2022-10-04T02:51:23;9.60;99.90
16700;DHT22;8466;52.286;21.124;2022-10-04T02:54:01;9.60;99.90
16700;DHT22;8466;52.286;21.124;2022-10-04T02:56:32;9.60;99.90
16700;DHT22;8466;52.286;21.124;2022-10-04T02:59:03;9.50;99.90
16700;DHT22;8466;52.286;21.124;2022-10-04T03:01:41;9.50;99.90
16700;DHT22;8466;52.286;21.124;2022-10-04T03:04:14;9.50;99.90
16700;DHT22;8466;52.286;21.124;2022-10-04T03:06:43;9.50;99.90
16700;DHT22;8466;52.286;21.124;2022-10-04T03:09:13;9.50;99.90
16700;DHT22;8466;52.286;21.124;2022-10-04T03:11:44;9.50;99.90
16700;DHT22;8466;52.286;21.124;2022-10-04T03:14:16;9.60;99.90
16700;DHT22;8466;52.286;21.124;2022-10-04T03:16:49;9.60;99.90
16700;DHT22;8466;52.286;21.124;2022-10-04T03:19:22;9.60;99.90
16700;DHT22;8466;52.286;21.124;2022-10-04T03:21:54;9.60;99.90
16700;DHT22;8466;52.286;21.124;2022-10-04T03:24:27;9.60;99.90
16700;DHT22;8466;52.286;21.124;2022-10-04T03:26:59;9.70;99.90
16700;DHT22;8466;52.286;21.124;2022-10-04T03:29:30;9.80;99.90
16700;DHT22;8466;52.286;21.124;2022-10-04T03:32:02;9.80;99.90
16700;DHT22;8466;52.286;21.124;2022-10-04T03:34:33;9.80;99.90
16700;DHT22;8466;52.286;21.124;2022-10-04T03:37:07;9.80;99.90
16700;DHT22;8466;52.286;21.124;2022-10-04T03:39:38;9.80;99.90
16700;DHT22;8466;52.286;21.124;2022-10-04T03:42:13;9.80;99.90
16700;DHT22;8466;52.286;21.124;2022-10-04T03:44:43;9.80;99.90
16700;DHT22;8466;52.286;21.124;2022-10-04T03:47:15;9.80;99.90
16700;DHT22;8466;52.286;21.124;2022-10-04T03:49:47;9.80;99.90
16700;DHT22;8466;52.286;21.124;2022-10-04T03:52:21;9.80;99.90
16700;DHT22;8466;52.286;21.124;2022-10-04T03:54:52;9.80;99.90
16700;DHT22;8466;52.286;21.124;2022-10-04T03:57:24;9.80;99.90
16700;DHT22;8466;52.286;21.124;2022-10-04T03:59:53;9.90;99.90
16700;DHT22;8466;52.286;21.124;2022-10-04T04:02:31;10.00;99.90
16700;DHT22;8466;52.286;21.124;2022-10-04T04:05:08;10.00;99.90
16700;DHT22;8466;52.286;21.124;2022-10-04T04:07:40;10.00;99.90
16700;DHT22;8466;52.286;21.124;2022-10-04T04:10:17;10.10;99.90
16700;DHT22;8466;52.286;21.124;2022-10-04T04:12:55;10.00;99.90
16700;DHT22;8466;52.286;21.124;2022-10-04T04:15:27;10.10;99.90
16700;DHT22;8466;52.286;21.124;2022-10-04T04:18:00;10.00;99.90
16700;DHT22;8466;52.286;21.124;2022-10-04T04:20:33;10.00;99.90
16700;DHT22;8466;52.286;21.124;2022-10-04T04:23:11;10.10;99.90
16700;DHT22;8466;52.286;21.124;2022-10-04T04:25:48;10.10;99.90
16700;DHT22;8466;52.286;21.124;2022-10-04T04:28:25;10.20;99.90
16700;DHT22;8466;52.286;21.124;2022-10-04T04:30:57;10.20;99.90
16700;DHT22;8466;52.286;21.124;2022-10-04T04:33:29;10.20;99.90
16700;DHT22;8466;52.286;21.124;2022-10-04T04:36:03;10.20;99.90
16700;DHT22;8466;52.286;21.124;2022-10-04T04:38:32;10.20;99.90
16700;DHT22;8466;52.286;21.124;2022-10-04T04:41:23;10.20;99.90
16700;DHT22;8466;52.286;21.124;2022-10-04T04:43:54;10.20;99.90
16700;DHT22;8466;52.286;21.124;2022-10-04T04:46:22;10.20;99.90
16700;DHT22;8466;52.286;21.124;2022-10-04T04:48:58;10.20;99.90
16700;DHT22;8466;52.286;21.124;2022-10-04T04:51:30;10.30;99.90
16700;DHT22;8466;52.286;21.124;2022-10-04T04:54:02;10.30;99.90
16700;DHT22;8466;52.286;21.124;2022-10-04T04:56:32;10.30;99.90
16700;DHT22;8466;52.286;21.124;2022-10-04T04:59:05;10.30;99.90
16700;DHT22;8466;52.286;21.124;2022-10-04T05:01:36;10.30;99.90
16700;DHT22;8466;52.286;21.124;2022-10-04T05:04:17;10.40;99.90
16700;DHT22;8466;52.286;21.124;2022-10-04T05:06:58;10.40;99.90
16700;DHT22;8466;52.286;21.124;2022-10-04T05:09:30;10.40;99.90
16700;DHT22;8466;52.286;21.124;2022-10-04T05:12:04;10.50;99.90
16700;DHT22;8466;52.286;21.124;2022-10-04T05:14:39;10.50;99.90
16700;DHT22;8466;52.286;21.124;2022-10-04T05:17:17;10.50;99.90
16700;DHT22;8466;52.286;21.124;2022-10-04T05:19:47;10.60;99.90
16700;DHT22;8466;52.286;21.124;2022-10-04T05:22:19;10.60;99.90
16700;DHT22;8466;52.286;21.124;2022-10-04T05:24:51;10.60;99.90
16700;DHT22;8466;52.286;21.124;2022-10-04T05:27:26;10.60;99.90
16700;DHT22;8466;52.286;21.124;2022-10-04T05:30:04;10.60;99.90
16700;DHT22;8466;52.286;21.124;2022-10-04T05:32:43;10.70;99.90
16700;DHT22;8466;52.286;21.124;2022-10-04T05:35:17;10.80;99.90
16700;DHT22;8466;52.286;21.124;2022-10-04T05:38:00;10.80;99.90
16700;DHT22;8466;52.286;21.124;2022-10-04T05:40:38;10.80;99.90
16700;DHT22;8466;52.286;21.124;2022-10-04T05:43:26;10.80;99.90
16700;DHT22;8466;52.286;21.124;2022-10-04T05:46:18;10.90;99.90
16700;DHT22;8466;52.286;21.124;2022-10-04T05:48:52;11.00;99.90
16700;DHT22;8466;52.286;21.124;2022-10-04T05:51:24;11.00;99.90
16700;DHT22;8466;52.286;21.124;2022-10-04T05:53:54;11.10;99.90
16700;DHT22;8466;52.286;21.124;2022-10-04T05:56:40;11.10;99.90
16700;DHT22;8466;52.286;21.124;2022-10-04T05:59:32;11.10;99.90
16700;DHT22;8466;52.286;21.124;2022-10-04T06:02:14;11.10;99.90
16700;DHT22;8466;52.286;21.124;2022-10-04T06:04:54;11.10;99.90
16700;DHT22;8466;52.286;21.124;2022-10-04T06:07:32;11.10;99.90
16700;DHT22;8466;52.286;21.124;2022-10-04T06:10:25;11.10;99.90
16700;DHT22;8466;52.286;21.124;2022-10-04T06:13:00;11.10;99.90
16700;DHT22;8466;52.286;21.124;2022-10-04T06:15:55;11.10;99.90
16700;DHT22;8466;52.286;21.124;2022-10-04T06:21:37;11.50;99.90
16700;DHT22;8466;52.286;21.124;2022-10-04T06:24:14;11.80;99.90
16700;DHT22;8466;52.286;21.124;2022-10-04T06:26:53;11.80;99.90
16700;DHT22;8466;52.286;21.124;2022-10-04T06:29:25;11.80;99.90
16700;DHT22;8466;52.286;21.124;2022-10-04T06:32:09;11.90;99.90
16700;DHT22;8466;52.286;21.124;2022-10-04T06:41:10;12.30;99.90
16700;DHT22;8466;52.286;21.124;2022-10-04T06:44:01;12.30;99.90
16700;DHT22;8466;52.286;21.124;2022-10-04T06:46:42;12.20;99.90
16700;DHT22;8466;52.286;21.124;2022-10-04T06:49:31;12.10;99.90
16700;DHT22;8466;52.286;21.124;2022-10-04T06:52:18;12.10;99.90
16700;DHT22;8466;52.286;21.124;2022-10-04T06:55:19;12.00;99.90
16700;DHT22;8466;52.286;21.124;2022-10-04T07:00:59;12.00;99.90
16700;DHT22;8466;52.286;21.124;2022-10-04T07:03:34;11.90;99.90
16700;DHT22;8466;52.286;21.124;2022-10-04T07:06:06;11.90;99.90
16700;DHT22;8466;52.286;21.124;2022-10-04T07:08:44;11.90;99.90
16700;DHT22;8466;52.286;21.124;2022-10-04T07:11:17;11.90;99.90
16700;DHT22;8466;52.286;21.124;2022-10-04T07:13:53;12.00;99.90
16700;DHT22;8466;52.286;21.124;2022-10-04T07:16:28;11.90;99.90
16700;DHT22;8466;52.286;21.124;2022-10-04T07:19:05;12.00;99.90
16700;DHT22;8466;52.286;21.124;2022-10-04T07:21:40;12.00;99.90
16700;DHT22;8466;52.286;21.124;2022-10-04T07:24:22;12.20;99.90
16700;DHT22;8466;52.286;21.124;2022-10-04T07:26:53;12.40;99.90
16700;DHT22;8466;52.286;21.124;2022-10-04T07:29:26;12.50;99.90
16700;DHT22;8466;52.286;21.124;2022-10-04T07:32:06;12.60;99.90
16700;DHT22;8466;52.286;21.124;2022-10-04T07:34:43;12.70;99.90
16700;DHT22;8466;52.286;21.124;2022-10-04T07:37:13;12.70;99.90
16700;DHT22;8466;52.286;21.124;2022-10-04T07:39:48;12.70;99.90
16700;DHT22;8466;52.286;21.124;2022-10-04T07:42:22;12.70;99.90
16700;DHT22;8466;52.286;21.124;2022-10-04T07:45:09;12.90;99.90
16700;DHT22;8466;52.286;21.124;2022-10-04T07:47:39;13.10;99.90
16700;DHT22;8466;52.286;21.124;2022-10-04T07:50:27;13.20;99.90
16700;DHT22;8466;52.286;21.124;2022-10-04T07:53:01;13.20;99.90
16700;DHT22;8466;52.286;21.124;2022-10-04T07:55:48;13.30;99.90
16700;DHT22;8466;52.286;21.124;2022-10-04T07:58:25;13.40;99.90
16700;DHT22;8466;52.286;21.124;2022-10-04T08:00:58;13.50;99.90
16700;DHT22;8466;52.286;21.124;2022-10-04T08:03:44;13.70;99.90
16700;DHT22;8466;52.286;21.124;2022-10-04T08:06:20;13.90;99.90
16700;DHT22;8466;52.286;21.124;2022-10-04T08:09:08;14.10;99.90
16700;DHT22;8466;52.286;21.124;2022-10-04T08:11:50;14.20;99.90
16700;DHT22;8466;52.286;21.124;2022-10-04T08:14:27;14.20;99.90
16700;DHT22;8466;52.286;21.124;2022-10-04T08:17:13;14.20;99.90
16700;DHT22;8466;52.286;21.124;2022-10-04T08:19:56;14.20;99.90
16700;DHT22;8466;52.286;21.124;2022-10-04T08:22:33;14.20;99.90
16700;DHT22;8466;52.286;21.124;2022-10-04T08:25:14;14.40;99.90
16700;DHT22;8466;52.286;21.124;2022-10-04T08:27:59;14.40;99.90
16700;DHT22;8466;52.286;21.124;2022-10-04T08:30:58;14.30;99.90
16700;DHT22;8466;52.286;21.124;2022-10-04T08:33:47;14.40;99.90
16700;DHT22;8466;52.286;21.124;2022-10-04T08:36:31;14.40;99.90
16700;DHT22;8466;52.286;21.124;2022-10-04T08:39:16;14.40;99.90
16700;DHT22;8466;52.286;21.124;2022-10-04T08:42:17;14.40;99.90
16700;DHT22;8466;52.286;21.124;2022-10-04T08:45:34;14.20;99.90
16700;DHT22;8466;52.286;21.124;2022-10-04T08:54:56;14.70;99.90
16700;DHT22;8466;52.286;21.124;2022-10-04T09:01:05;14.50;99.90
16700;DHT22;8466;52.286;21.124;2022-10-04T09:06:48;14.20;99.90
16700;DHT22;8466;52.286;21.124;2022-10-04T09:09:46;13.90;99.90
16700;DHT22;8466;52.286;21.124;2022-10-04T09:12:42;13.80;99.90
16700;DHT22;8466;52.286;21.124;2022-10-04T09:15:28;13.80;99.90
16700;DHT22;8466;52.286;21.124;2022-10-04T09:18:27;14.00;99.90
16700;DHT22;8466;52.286;21.124;2022-10-04T09:21:09;14.30;99.90
16700;DHT22;8466;52.286;21.124;2022-10-04T09:24:09;14.40;99.90
16700;DHT22;8466;52.286;21.124;2022-10-04T09:26:50;14.60;99.90
16700;DHT22;8466;52.286;21.124;2022-10-04T09:29:38;14.60;99.90
16700;DHT22;8466;52.286;21.124;2022-10-04T09:35:30;14.40;99.90
16700;DHT22;8466;52.286;21.124;2022-10-04T09:41:20;14.60;99.90
16700;DHT22;8466;52.286;21.124;2022-10-04T09:53:12;14.30;99.90
16700;DHT22;8466;52.286;21.124;2022-10-04T09:59:08;13.90;99.90
16700;DHT22;8466;52.286;21.124;2022-10-04T10:02:15;13.70;99.90
16700;DHT22;8466;52.286;21.124;2022-10-04T10:05:18;13.70;99.90
16700;DHT22;8466;52.286;21.124;2022-10-04T10:07:56;13.70;99.90
16700;DHT22;8466;52.286;21.124;2022-10-04T10:10:35;13.70;99.90
16700;DHT22;8466;52.286;21.124;2022-10-04T10:13:40;13.90;99.90
16700;DHT22;8466;52.286;21.124;2022-10-04T10:16:25;14.00;99.90
16700;DHT22;8466;52.286;21.124;2022-10-04T10:19:07;14.20;99.90
16700;DHT22;8466;52.286;21.124;2022-10-04T10:21:52;14.30;99.90
16700;DHT22;8466;52.286;21.124;2022-10-04T10:24:41;14.40;99.90
16700;DHT22;8466;52.286;21.124;2022-10-04T10:27:46;14.20;99.90
16700;DHT22;8466;52.286;21.124;2022-10-04T10:30:23;13.90;99.90
16700;DHT22;8466;52.286;21.124;2022-10-04T10:33:35;13.90;99.90
16700;DHT22;8466;52.286;21.124;2022-10-04T10:36:41;14.10;99.90
16700;DHT22;8466;52.286;21.124;2022-10-04T10:39:39;14.50;99.90
16700;DHT22;8466;52.286;21.124;2022-10-04T10:42:22;14.70;99.90
16700;DHT22;8466;52.286;21.124;2022-10-04T10:45:18;14.90;99.90
16700;DHT22;8466;52.286;21.124;2022-10-04T10:47:52;15.00;99.90
16700;DHT22;8466;52.286;21.124;2022-10-04T10:50:59;15.10;99.90
16700;DHT22;8466;52.286;21.124;2022-10-04T10:56:51;15.30;99.90
16700;DHT22;8466;52.286;21.124;2022-10-04T11:03:22;15.80;99.90
16700;DHT22;8466;52.286;21.124;2022-10-04T11:09:30;15.80;99.90
16700;DHT22;8466;52.286;21.124;2022-10-04T11:15:35;15.80;99.90
16700;DHT22;8466;52.286;21.124;2022-10-04T11:24:17;15.70;99.90
16700;DHT22;8466;52.286;21.124;2022-10-04T11:27:20;15.80;99.90
16700;DHT22;8466;52.286;21.124;2022-10-04T11:30:13;15.90;99.90
16700;DHT22;8466;52.286;21.124;2022-10-04T11:36:26;15.80;99.90
16700;DHT22;8466;52.286;21.124;2022-10-04T11:39:05;15.60;99.90
16700;DHT22;8466;52.286;21.124;2022-10-04T11:41:55;15.50;99.90
16700;DHT22;8466;52.286;21.124;2022-10-04T11:47:32;15.40;99.90
16700;DHT22;8466;52.286;21.124;2022-10-04T11:50:19;15.40;99.90
16700;DHT22;8466;52.286;21.124;2022-10-04T11:53:22;15.30;99.90
16700;DHT22;8466;52.286;21.124;2022-10-04T11:59:01;15.60;99.90
16700;DHT22;8466;52.286;21.124;2022-10-04T12:02:00;15.70;99.90
16700;DHT22;8466;52.286;21.124;2022-10-04T12:05:06;15.80;99.90
16700;DHT22;8466;52.286;21.124;2022-10-04T12:08:10;16.00;99.90
16700;DHT22;8466;52.286;21.124;2022-10-04T12:10:57;16.00;99.90
16700;DHT22;8466;52.286;21.124;2022-10-04T12:13:46;16.00;99.90
16700;DHT22;8466;52.286;21.124;2022-10-04T12:16:44;16.00;99.90
16700;DHT22;8466;52.286;21.124;2022-10-04T12:19:40;15.90;99.90
16700;DHT22;8466;52.286;21.124;2022-10-04T12:22:44;15.90;99.90
16700;DHT22;8466;52.286;21.124;2022-10-04T12:25:44;15.70;99.90
16700;DHT22;8466;52.286;21.124;2022-10-04T12:31:30;15.30;99.90
16700;DHT22;8466;52.286;21.124;2022-10-04T12:34:11;15.20;99.90
16700;DHT22;8466;52.286;21.124;2022-10-04T12:37:07;15.20;99.90
16700;DHT22;8466;52.286;21.124;2022-10-04T12:39:53;15.30;99.90
16700;DHT22;8466;52.286;21.124;2022-10-04T12:42:32;15.40;99.90
16700;DHT22;8466;52.286;21.124;2022-10-04T12:45:26;15.70;99.90
16700;DHT22;8466;52.286;21.124;2022-10-04T12:48:10;16.00;99.90
16700;DHT22;8466;52.286;21.124;2022-10-04T12:50:48;16.10;99.90
16700;DHT22;8466;52.286;21.124;2022-10-04T12:53:32;16.20;99.90
16700;DHT22;8466;52.286;21.124;2022-10-04T12:56:13;16.30;99.90
16700;DHT22;8466;52.286;21.124;2022-10-04T13:02:00;16.30;99.90
16700;DHT22;8466;52.286;21.124;2022-10-04T13:04:37;16.20;99.90
16700;DHT22;8466;52.286;21.124;2022-10-04T13:07:37;16.10;99.90
16700;DHT22;8466;52.286;21.124;2022-10-04T13:10:21;16.00;99.90
16700;DHT22;8466;52.286;21.124;2022-10-04T13:13:20;16.10;99.90
16700;DHT22;8466;52.286;21.124;2022-10-04T13:16:00;16.00;99.90
16700;DHT22;8466;52.286;21.124;2022-10-04T13:18:59;16.10;99.90
16700;DHT22;8466;52.286;21.124;2022-10-04T13:21:55;16.00;99.90
16700;DHT22;8466;52.286;21.124;2022-10-04T13:24:31;15.90;99.90
16700;DHT22;8466;52.286;21.124;2022-10-04T13:27:28;15.80;99.90
16700;DHT22;8466;52.286;21.124;2022-10-04T13:30:04;15.80;99.90
16700;DHT22;8466;52.286;21.124;2022-10-04T13:32:42;15.70;99.90
16700;DHT22;8466;52.286;21.124;2022-10-04T13:35:17;15.70;99.90
16700;DHT22;8466;52.286;21.124;2022-10-04T13:38:00;15.80;99.90
16700;DHT22;8466;52.286;21.124;2022-10-04T13:40:49;15.80;99.90
16700;DHT22;8466;52.286;21.124;2022-10-04T13:46:33;15.70;99.90
16700;DHT22;8466;52.286;21.124;2022-10-04T13:49:22;15.50;99.90
16700;DHT22;8466;52.286;21.124;2022-10-04T13:52:17;15.60;99.90
16700;DHT22;8466;52.286;21.124;2022-10-04T13:55:22;15.70;99.90
16700;DHT22;8466;52.286;21.124;2022-10-04T13:58:21;15.50;99.90
16700;DHT22;8466;52.286;21.124;2022-10-04T14:01:17;15.40;99.90
16700;DHT22;8466;52.286;21.124;2022-10-04T14:03:56;15.30;99.90
16700;DHT22;8466;52.286;21.124;2022-10-04T14:09:49;15.20;99.90
16700;DHT22;8466;52.286;21.124;2022-10-04T14:13:01;15.30;99.90
16700;DHT22;8466;52.286;21.124;2022-10-04T14:15:49;15.40;99.90
16700;DHT22;8466;52.286;21.124;2022-10-04T14:22:03;15.60;99.90
16700;DHT22;8466;52.286;21.124;2022-10-04T14:28:17;15.80;99.90
16700;DHT22;8466;52.286;21.124;2022-10-04T14:31:10;15.70;99.90
16700;DHT22;8466;52.286;21.124;2022-10-04T14:34:17;15.70;99.90
16700;DHT22;8466;52.286;21.124;2022-10-04T14:37:18;15.70;99.90
16700;DHT22;8466;52.286;21.124;2022-10-04T14:40:02;15.60;99.90
16700;DHT22;8466;52.286;21.124;2022-10-04T14:43:02;15.50;99.90
16700;DHT22;8466;52.286;21.124;2022-10-04T14:45:55;15.40;99.90
16700;DHT22;8466;52.286;21.124;2022-10-04T14:48:55;15.30;99.90
16700;DHT22;8466;52.286;21.124;2022-10-04T14:51:48;15.20;99.90
16700;DHT22;8466;52.286;21.124;2022-10-04T14:54:38;15.20;99.90
16700;DHT22;8466;52.286;21.124;2022-10-04T14:57:15;15.10;99.90
16700;DHT22;8466;52.286;21.124;2022-10-04T15:00:07;15.00;99.90
16700;DHT22;8466;52.286;21.124;2022-10-04T15:02:57;14.90;99.90
16700;DHT22;8466;52.286;21.124;2022-10-04T15:08:53;14.80;99.90
16700;DHT22;8466;52.286;21.124;2022-10-04T15:11:39;14.60;99.90
16700;DHT22;8466;52.286;21.124;2022-10-04T15:14:26;14.50;99.90
16700;DHT22;8466;52.286;21.124;2022-10-04T15:17:08;14.40;99.90
16700;DHT22;8466;52.286;21.124;2022-10-04T15:20:01;14.30;99.90
16700;DHT22;8466;52.286;21.124;2022-10-04T15:22:40;14.20;99.90
16700;DHT22;8466;52.286;21.124;2022-10-04T15:25:38;14.20;99.90
16700;DHT22;8466;52.286;21.124;2022-10-04T15:28:28;14.00;99.90
16700;DHT22;8466;52.286;21.124;2022-10-04T15:31:04;13.90;99.90
16700;DHT22;8466;52.286;21.124;2022-10-04T15:33:40;13.80;99.90
16700;DHT22;8466;52.286;21.124;2022-10-04T15:39:44;13.50;99.90
16700;DHT22;8466;52.286;21.124;2022-10-04T15:42:26;13.30;99.90
16700;DHT22;8466;52.286;21.124;2022-10-04T15:45:25;13.30;99.90
16700;DHT22;8466;52.286;21.124;2022-10-04T15:48:20;13.20;99.90
16700;DHT22;8466;52.286;21.124;2022-10-04T15:51:02;13.00;99.90
16700;DHT22;8466;52.286;21.124;2022-10-04T15:54:08;13.00;99.90
16700;DHT22;8466;52.286;21.124;2022-10-04T15:56:47;13.00;99.90
16700;DHT22;8466;52.286;21.124;2022-10-04T15:59:41;13.00;99.90
16700;DHT22;8466;52.286;21.124;2022-10-04T16:02:42;13.00;99.90
16700;DHT22;8466;52.286;21.124;2022-10-04T16:05:22;12.90;99.90
16700;DHT22;8466;52.286;21.124;2022-10-04T16:10:59;12.50;99.90
16700;DHT22;8466;52.286;21.124;2022-10-04T16:13:48;12.40;99.90
16700;DHT22;8466;52.286;21.124;2022-10-04T16:16:53;12.30;99.90
16700;DHT22;8466;52.286;21.124;2022-10-04T16:19:42;12.20;99.90
16700;DHT22;8466;52.286;21.124;2022-10-04T16:22:17;12.10;99.90
16700;DHT22;8466;52.286;21.124;2022-10-04T16:24:47;12.10;99.90
16700;DHT22;8466;52.286;21.124;2022-10-04T16:27:38;11.90;99.90
16700;DHT22;8466;52.286;21.124;2022-10-04T16:33:23;11.80;99.90
16700;DHT22;8466;52.286;21.124;2022-10-04T16:36:08;11.80;99.90
16700;DHT22;8466;52.286;21.124;2022-10-04T16:38:44;11.80;99.90
16700;DHT22;8466;52.286;21.124;2022-10-04T16:41:34;11.80;99.90
16700;DHT22;8466;52.286;21.124;2022-10-04T16:44:20;11.90;99.90
16700;DHT22;8466;52.286;21.124;2022-10-04T16:46:51;12.00;99.90
16700;DHT22;8466;52.286;21.124;2022-10-04T16:49:25;11.90;99.90
16700;DHT22;8466;52.286;21.124;2022-10-04T16:52:12;11.90;99.90
16700;DHT22;8466;52.286;21.124;2022-10-04T16:54:56;11.90;99.90
16700;DHT22;8466;52.286;21.124;2022-10-04T16:57:27;11.90;99.90
16700;DHT22;8466;52.286;21.124;2022-10-04T16:59:57;11.90;99.90
16700;DHT22;8466;52.286;21.124;2022-10-04T17:02:56;11.80;99.90
16700;DHT22;8466;52.286;21.124;2022-10-04T17:05:44;11.70;99.90
16700;DHT22;8466;52.286;21.124;2022-10-04T17:08:51;11.70;99.90
16700;DHT22;8466;52.286;21.124;2022-10-04T17:11:42;11.60;99.90
16700;DHT22;8466;52.286;21.124;2022-10-04T17:14:45;11.60;99.90
16700;DHT22;8466;52.286;21.124;2022-10-04T17:17:22;11.60;99.90
16700;DHT22;8466;52.286;21.124;2022-10-04T17:20:02;11.50;99.90
16700;DHT22;8466;52.286;21.124;2022-10-04T17:22:43;11.40;99.90
16700;DHT22;8466;52.286;21.124;2022-10-04T17:25:22;11.30;99.90
16700;DHT22;8466;52.286;21.124;2022-10-04T17:27:57;11.20;99.90
16700;DHT22;8466;52.286;21.124;2022-10-04T17:30:38;11.10;99.90
16700;DHT22;8466;52.286;21.124;2022-10-04T17:33:20;10.90;99.90
16700;DHT22;8466;52.286;21.124;2022-10-04T17:38:53;10.70;99.90
16700;DHT22;8466;52.286;21.124;2022-10-04T17:41:39;10.60;99.90
16700;DHT22;8466;52.286;21.124;2022-10-04T17:44:32;10.60;99.90
16700;DHT22;8466;52.286;21.124;2022-10-04T17:47:07;10.60;99.90
16700;DHT22;8466;52.286;21.124;2022-10-04T17:49:50;10.50;99.90
16700;DHT22;8466;52.286;21.124;2022-10-04T17:52:42;10.40;99.90
16700;DHT22;8466;52.286;21.124;2022-10-04T17:55:42;10.30;99.90
16700;DHT22;8466;52.286;21.124;2022-10-04T17:58:18;10.30;99.90
16700;DHT22;8466;52.286;21.124;2022-10-04T18:00:54;10.20;99.90
16700;DHT22;8466;52.286;21.124;2022-10-04T18:03:31;10.20;99.90
16700;DHT22;8466;52.286;21.124;2022-10-04T18:06:16;10.10;99.90
16700;DHT22;8466;52.286;21.124;2022-10-04T18:08:51;10.00;99.90
16700;DHT22;8466;52.286;21.124;2022-10-04T18:11:26;10.00;99.90
16700;DHT22;8466;52.286;21.124;2022-10-04T18:14:00;9.90;99.90
16700;DHT22;8466;52.286;21.124;2022-10-04T18:16:40;9.80;99.90
16700;DHT22;8466;52.286;21.124;2022-10-04T18:19:32;9.70;99.90
16700;DHT22;8466;52.286;21.124;2022-10-04T18:22:11;9.70;99.90
16700;DHT22;8466;52.286;21.124;2022-10-04T18:24:42;9.60;99.90
16700;DHT22;8466;52.286;21.124;2022-10-04T18:27:17;9.60;99.90
16700;DHT22;8466;52.286;21.124;2022-10-04T18:30:07;9.50;99.90
16700;DHT22;8466;52.286;21.124;2022-10-04T18:32:43;9.60;99.90
16700;DHT22;8466;52.286;21.124;2022-10-04T18:35:20;9.60;99.90
16700;DHT22;8466;52.286;21.124;2022-10-04T18:37:52;9.60;99.90
16700;DHT22;8466;52.286;21.124;2022-10-04T18:40:23;9.60;99.90
16700;DHT22;8466;52.286;21.124;2022-10-04T18:42:53;9.50;99.90
16700;DHT22;8466;52.286;21.124;2022-10-04T18:45:26;9.50;99.90
16700;DHT22;8466;52.286;21.124;2022-10-04T18:47:58;9.40;99.90
16700;DHT22;8466;52.286;21.124;2022-10-04T18:50:35;9.40;99.90
16700;DHT22;8466;52.286;21.124;2022-10-04T18:56:08;9.20;99.90
16700;DHT22;8466;52.286;21.124;2022-10-04T18:58:51;9.20;99.90
16700;DHT22;8466;52.286;21.124;2022-10-04T19:01:51;9.10;99.90
16700;DHT22;8466;52.286;21.124;2022-10-04T19:04:38;9.00;99.90
16700;DHT22;8466;52.286;21.124;2022-10-04T19:07:10;8.90;99.90